Terminal Aerodrome Forecast
Issued by NWS

Home | Current Version | Previous Version | Text Only | Print | Product List | Glossary On
Versions: 1 2 3 4 5 6 7 8 9 10 11 12 13 14 15 16 17 18 19 20
460
FTUS44 KBMX 050212 AAA
TAFMGM
TAF AMD
KMGM 050212Z 0502/0524 28010KT P6SM SCT080
      TEMPO 0502/0503 33013G24KT 5SM SHRA BKN050
     FM050400 30008KT P6SM SKC
     FM051500 30012KT P6SM SKC=

USA.gov is the U.S. government's official web portal to all federal, state and local government web resources and services.